sensor_id;sensor_type;location;lat;lon;timestamp;P1;durP1;ratioP1;P2;durP2;ratioP2
36923;SDS011;22841;50.252;18.688;2023-08-06T00:02:10;31.73;;;17.48;;
36923;SDS011;22841;50.252;18.688;2023-08-06T00:04:36;29.42;;;17.80;;
36923;SDS011;22841;50.252;18.688;2023-08-06T00:07:02;34.30;;;18.85;;
36923;SDS011;22841;50.252;18.688;2023-08-06T00:09:29;35.30;;;19.77;;
36923;SDS011;22841;50.252;18.688;2023-08-06T00:11:55;38.10;;;22.15;;
36923;SDS011;22841;50.252;18.688;2023-08-06T00:14:21;48.25;;;25.08;;
36923;SDS011;22841;50.252;18.688;2023-08-06T00:16:47;42.80;;;22.58;;
36923;SDS011;22841;50.252;18.688;2023-08-06T00:19:13;56.45;;;27.80;;
36923;SDS011;22841;50.252;18.688;2023-08-06T00:21:39;57.95;;;25.67;;
36923;SDS011;22841;50.252;18.688;2023-08-06T00:24:07;62.05;;;26.80;;
36923;SDS011;22841;50.252;18.688;2023-08-06T00:26:33;75.25;;;27.70;;
36923;SDS011;22841;50.252;18.688;2023-08-06T00:28:59;71.57;;;27.52;;
36923;SDS011;22841;50.252;18.688;2023-08-06T00:31:26;72.38;;;28.25;;
36923;SDS011;22841;50.252;18.688;2023-08-06T00:33:52;77.60;;;29.65;;
36923;SDS011;22841;50.252;18.688;2023-08-06T00:36:18;77.97;;;29.80;;
36923;SDS011;22841;50.252;18.688;2023-08-06T00:38:44;78.60;;;31.05;;
36923;SDS011;22841;50.252;18.688;2023-08-06T00:41:10;81.43;;;28.38;;
36923;SDS011;22841;50.252;18.688;2023-08-06T00:43:36;95.63;;;32.35;;
36923;SDS011;22841;50.252;18.688;2023-08-06T00:46:03;81.93;;;31.05;;
36923;SDS011;22841;50.252;18.688;2023-08-06T00:48:29;89.63;;;31.52;;
36923;SDS011;22841;50.252;18.688;2023-08-06T00:50:55;86.55;;;30.75;;
36923;SDS011;22841;50.252;18.688;2023-08-06T00:53:21;92.82;;;30.02;;
36923;SDS011;22841;50.252;18.688;2023-08-06T00:55:48;75.45;;;29.55;;
36923;SDS011;22841;50.252;18.688;2023-08-06T00:58:14;74.97;;;29.73;;
36923;SDS011;22841;50.252;18.688;2023-08-06T01:00:42;88.57;;;32.00;;
36923;SDS011;22841;50.252;18.688;2023-08-06T01:03:08;63.45;;;28.98;;
36923;SDS011;22841;50.252;18.688;2023-08-06T01:05:34;92.20;;;30.63;;
36923;SDS011;22841;50.252;18.688;2023-08-06T01:10:51;83.00;;;31.40;;
36923;SDS011;22841;50.252;18.688;2023-08-06T01:16:02;102.35;;;30.70;;
36923;SDS011;22841;50.252;18.688;2023-08-06T01:18:31;82.40;;;30.20;;
36923;SDS011;22841;50.252;18.688;2023-08-06T01:20:57;109.60;;;31.10;;
36923;SDS011;22841;50.252;18.688;2023-08-06T01:23:23;84.50;;;29.45;;
36923;SDS011;22841;50.252;18.688;2023-08-06T01:31:38;90.40;;;29.35;;
36923;SDS011;22841;50.252;18.688;2023-08-06T01:34:09;74.03;;;28.17;;
36923;SDS011;22841;50.252;18.688;2023-08-06T01:36:39;88.85;;;30.17;;
36923;SDS011;22841;50.252;18.688;2023-08-06T01:39:06;74.18;;;29.63;;
36923;SDS011;22841;50.252;18.688;2023-08-06T01:41:32;78.28;;;28.05;;
36923;SDS011;22841;50.252;18.688;2023-08-06T01:43:58;61.33;;;27.65;;
36923;SDS011;22841;50.252;18.688;2023-08-06T01:46:24;67.03;;;27.02;;
36923;SDS011;22841;50.252;18.688;2023-08-06T01:48:50;80.88;;;28.15;;
36923;SDS011;22841;50.252;18.688;2023-08-06T01:51:16;105.78;;;31.13;;
36923;SDS011;22841;50.252;18.688;2023-08-06T01:53:43;111.18;;;31.65;;
36923;SDS011;22841;50.252;18.688;2023-08-06T01:56:09;90.50;;;30.17;;
36923;SDS011;22841;50.252;18.688;2023-08-06T01:58:35;97.07;;;30.83;;
36923;SDS011;22841;50.252;18.688;2023-08-06T02:01:01;87.10;;;29.95;;
36923;SDS011;22841;50.252;18.688;2023-08-06T02:03:28;88.45;;;31.75;;
36923;SDS011;22841;50.252;18.688;2023-08-06T02:05:54;61.25;;;28.80;;
36923;SDS011;22841;50.252;18.688;2023-08-06T02:08:20;72.88;;;28.08;;
36923;SDS011;22841;50.252;18.688;2023-08-06T02:10:46;72.63;;;27.08;;
36923;SDS011;22841;50.252;18.688;2023-08-06T02:13:12;80.75;;;31.60;;
36923;SDS011;22841;50.252;18.688;2023-08-06T02:15:45;62.50;;;26.42;;
36923;SDS011;22841;50.252;18.688;2023-08-06T02:18:14;73.07;;;29.42;;
36923;SDS011;22841;50.252;18.688;2023-08-06T02:20:41;71.75;;;30.42;;
36923;SDS011;22841;50.252;18.688;2023-08-06T02:23:08;94.90;;;31.70;;
36923;SDS011;22841;50.252;18.688;2023-08-06T02:25:35;70.60;;;28.15;;
36923;SDS011;22841;50.252;18.688;2023-08-06T02:28:01;75.72;;;29.38;;
36923;SDS011;22841;50.252;18.688;2023-08-06T02:30:27;87.30;;;29.73;;
36923;SDS011;22841;50.252;18.688;2023-08-06T02:32:53;80.63;;;30.00;;
36923;SDS011;22841;50.252;18.688;2023-08-06T02:35:19;65.55;;;29.42;;
36923;SDS011;22841;50.252;18.688;2023-08-06T02:37:46;73.20;;;27.25;;
36923;SDS011;22841;50.252;18.688;2023-08-06T02:40:12;78.80;;;30.20;;
36923;SDS011;22841;50.252;18.688;2023-08-06T02:42:38;76.75;;;30.50;;
36923;SDS011;22841;50.252;18.688;2023-08-06T02:45:04;73.68;;;30.05;;
36923;SDS011;22841;50.252;18.688;2023-08-06T02:47:31;83.78;;;29.08;;
36923;SDS011;22841;50.252;18.688;2023-08-06T02:49:57;65.32;;;28.70;;
36923;SDS011;22841;50.252;18.688;2023-08-06T02:52:23;69.47;;;28.17;;
36923;SDS011;22841;50.252;18.688;2023-08-06T02:54:49;72.78;;;29.88;;
36923;SDS011;22841;50.252;18.688;2023-08-06T02:57:15;74.72;;;30.52;;
36923;SDS011;22841;50.252;18.688;2023-08-06T02:59:42;69.95;;;30.08;;
36923;SDS011;22841;50.252;18.688;2023-08-06T03:02:08;67.35;;;26.70;;
36923;SDS011;22841;50.252;18.688;2023-08-06T03:04:34;65.40;;;27.35;;
36923;SDS011;22841;50.252;18.688;2023-08-06T03:07:00;72.70;;;29.40;;
36923;SDS011;22841;50.252;18.688;2023-08-06T03:09:26;113.55;;;33.70;;
36923;SDS011;22841;50.252;18.688;2023-08-06T03:11:52;76.97;;;30.95;;
36923;SDS011;22841;50.252;18.688;2023-08-06T03:14:18;99.38;;;32.85;;
36923;SDS011;22841;50.252;18.688;2023-08-06T03:16:44;111.07;;;33.38;;
36923;SDS011;22841;50.252;18.688;2023-08-06T03:19:10;80.63;;;30.85;;
36923;SDS011;22841;50.252;18.688;2023-08-06T03:21:37;109.30;;;32.33;;
36923;SDS011;22841;50.252;18.688;2023-08-06T03:24:03;126.82;;;34.97;;
36923;SDS011;22841;50.252;18.688;2023-08-06T03:26:29;116.03;;;33.72;;
36923;SDS011;22841;50.252;18.688;2023-08-06T03:28:55;106.30;;;33.03;;
36923;SDS011;22841;50.252;18.688;2023-08-06T03:31:21;97.53;;;31.50;;
36923;SDS011;22841;50.252;18.688;2023-08-06T03:33:47;74.78;;;28.60;;
36923;SDS011;22841;50.252;18.688;2023-08-06T03:36:13;68.45;;;28.52;;
36923;SDS011;22841;50.252;18.688;2023-08-06T03:38:40;60.72;;;26.30;;
36923;SDS011;22841;50.252;18.688;2023-08-06T03:41:06;87.22;;;30.98;;
36923;SDS011;22841;50.252;18.688;2023-08-06T03:43:32;55.33;;;24.45;;
36923;SDS011;22841;50.252;18.688;2023-08-06T03:45:58;51.13;;;22.65;;
36923;SDS011;22841;50.252;18.688;2023-08-06T03:48:24;41.95;;;19.75;;
36923;SDS011;22841;50.252;18.688;2023-08-06T03:50:50;41.10;;;18.67;;
36923;SDS011;22841;50.252;18.688;2023-08-06T04:43:21;7.90;;;3.88;;
36923;SDS011;22841;50.252;18.688;2023-08-06T04:45:51;8.02;;;3.85;;
36923;SDS011;22841;50.252;18.688;2023-08-06T04:48:19;8.48;;;2.55;;
36923;SDS011;22841;50.252;18.688;2023-08-06T04:50:45;10.15;;;3.13;;
36923;SDS011;22841;50.252;18.688;2023-08-06T04:53:12;5.38;;;1.85;;
36923;SDS011;22841;50.252;18.688;2023-08-06T04:55:38;5.72;;;2.00;;
36923;SDS011;22841;50.252;18.688;2023-08-06T04:58:04;6.90;;;1.73;;
36923;SDS011;22841;50.252;18.688;2023-08-06T05:00:31;3.30;;;1.40;;
36923;SDS011;22841;50.252;18.688;2023-08-06T05:02:59;1.85;;;1.20;;
36923;SDS011;22841;50.252;18.688;2023-08-06T05:05:27;3.90;;;1.40;;
36923;SDS011;22841;50.252;18.688;2023-08-06T05:07:54;3.95;;;1.30;;
36923;SDS011;22841;50.252;18.688;2023-08-06T05:10:21;5.32;;;1.40;;
36923;SDS011;22841;50.252;18.688;2023-08-06T05:12:49;5.00;;;1.48;;
36923;SDS011;22841;50.252;18.688;2023-08-06T05:15:15;7.75;;;1.23;;
36923;SDS011;22841;50.252;18.688;2023-08-06T05:17:41;10.38;;;1.40;;
36923;SDS011;22841;50.252;18.688;2023-08-06T05:20:08;10.30;;;1.15;;
36923;SDS011;22841;50.252;18.688;2023-08-06T05:22:34;15.02;;;1.48;;
36923;SDS011;22841;50.252;18.688;2023-08-06T05:25:00;6.30;;;0.93;;
36923;SDS011;22841;50.252;18.688;2023-08-06T05:27:27;3.58;;;1.05;;
36923;SDS011;22841;50.252;18.688;2023-08-06T05:29:56;2.17;;;0.80;;
36923;SDS011;22841;50.252;18.688;2023-08-06T05:32:22;3.30;;;0.90;;
36923;SDS011;22841;50.252;18.688;2023-08-06T05:34:48;1.75;;;0.60;;
36923;SDS011;22841;50.252;18.688;2023-08-06T05:37:14;3.90;;;0.75;;
36923;SDS011;22841;50.252;18.688;2023-08-06T05:39:41;9.48;;;0.60;;
36923;SDS011;22841;50.252;18.688;2023-08-06T05:42:07;1.30;;;1.20;;
36923;SDS011;22841;50.252;18.688;2023-08-06T05:44:33;7.32;;;1.48;;
36923;SDS011;22841;50.252;18.688;2023-08-06T05:46:59;4.80;;;1.15;;
36923;SDS011;22841;50.252;18.688;2023-08-06T05:49:25;1.80;;;1.08;;
36923;SDS011;22841;50.252;18.688;2023-08-06T05:51:51;2.47;;;0.60;;
36923;SDS011;22841;50.252;18.688;2023-08-06T05:54:20;1.58;;;0.63;;
36923;SDS011;22841;50.252;18.688;2023-08-06T05:56:46;1.75;;;0.63;;
36923;SDS011;22841;50.252;18.688;2023-08-06T05:59:12;4.65;;;0.90;;
36923;SDS011;22841;50.252;18.688;2023-08-06T06:01:38;4.18;;;0.88;;
36923;SDS011;22841;50.252;18.688;2023-08-06T06:04:04;5.70;;;1.20;;
36923;SDS011;22841;50.252;18.688;2023-08-06T06:06:30;4.63;;;0.70;;
36923;SDS011;22841;50.252;18.688;2023-08-06T06:08:56;7.63;;;1.00;;
36923;SDS011;22841;50.252;18.688;2023-08-06T06:11:23;9.35;;;1.27;;
36923;SDS011;22841;50.252;18.688;2023-08-06T06:13:50;3.10;;;0.70;;
36923;SDS011;22841;50.252;18.688;2023-08-06T06:16:16;7.18;;;1.08;;
36923;SDS011;22841;50.252;18.688;2023-08-06T06:18:42;3.40;;;1.00;;
36923;SDS011;22841;50.252;18.688;2023-08-06T06:21:09;1.55;;;0.77;;
36923;SDS011;22841;50.252;18.688;2023-08-06T06:23:36;3.33;;;1.08;;
36923;SDS011;22841;50.252;18.688;2023-08-06T06:26:02;5.13;;;1.25;;
36923;SDS011;22841;50.252;18.688;2023-08-06T06:28:28;3.75;;;1.17;;
36923;SDS011;22841;50.252;18.688;2023-08-06T06:30:54;2.47;;;0.98;;
36923;SDS011;22841;50.252;18.688;2023-08-06T06:33:26;2.47;;;1.02;;
36923;SDS011;22841;50.252;18.688;2023-08-06T06:35:52;4.22;;;1.10;;
36923;SDS011;22841;50.252;18.688;2023-08-06T06:38:18;3.17;;;0.90;;
36923;SDS011;22841;50.252;18.688;2023-08-06T06:40:53;2.72;;;0.70;;
36923;SDS011;22841;50.252;18.688;2023-08-06T06:43:20;1.45;;;0.65;;
36923;SDS011;22841;50.252;18.688;2023-08-06T06:45:46;5.57;;;0.77;;
36923;SDS011;22841;50.252;18.688;2023-08-06T06:48:12;2.85;;;0.85;;
36923;SDS011;22841;50.252;18.688;2023-08-06T06:50:38;4.47;;;0.80;;
36923;SDS011;22841;50.252;18.688;2023-08-06T07:12:57;2.58;;;0.60;;
36923;SDS011;22841;50.252;18.688;2023-08-06T07:15:23;3.78;;;0.85;;
36923;SDS011;22841;50.252;18.688;2023-08-06T07:17:49;2.28;;;0.50;;
36923;SDS011;22841;50.252;18.688;2023-08-06T07:20:15;1.55;;;0.70;;
36923;SDS011;22841;50.252;18.688;2023-08-06T07:22:41;2.50;;;0.73;;
36923;SDS011;22841;50.252;18.688;2023-08-06T07:25:08;2.45;;;0.70;;
36923;SDS011;22841;50.252;18.688;2023-08-06T07:27:34;3.72;;;1.05;;
36923;SDS011;22841;50.252;18.688;2023-08-06T07:30:00;2.40;;;0.60;;
36923;SDS011;22841;50.252;18.688;2023-08-06T07:32:26;1.33;;;0.50;;
36923;SDS011;22841;50.252;18.688;2023-08-06T07:34:53;0.32;;;0.32;;
36923;SDS011;22841;50.252;18.688;2023-08-06T07:37:24;3.60;;;0.60;;
36923;SDS011;22841;50.252;18.688;2023-08-06T07:39:51;3.72;;;0.90;;
36923;SDS011;22841;50.252;18.688;2023-08-06T07:42:17;2.05;;;0.60;;
36923;SDS011;22841;50.252;18.688;2023-08-06T07:44:53;6.97;;;0.73;;
36923;SDS011;22841;50.252;18.688;2023-08-06T07:47:21;1.58;;;0.70;;
36923;SDS011;22841;50.252;18.688;2023-08-06T07:49:48;5.00;;;0.90;;
36923;SDS011;22841;50.252;18.688;2023-08-06T07:52:14;2.95;;;0.65;;
36923;SDS011;22841;50.252;18.688;2023-08-06T07:54:40;1.90;;;0.80;;
36923;SDS011;22841;50.252;18.688;2023-08-06T08:01:17;1.05;;;0.63;;
36923;SDS011;22841;50.252;18.688;2023-08-06T08:03:43;2.45;;;1.05;;
36923;SDS011;22841;50.252;18.688;2023-08-06T08:06:09;4.70;;;1.05;;
36923;SDS011;22841;50.252;18.688;2023-08-06T08:08:35;7.80;;;0.80;;
36923;SDS011;22841;50.252;18.688;2023-08-06T08:11:04;1.38;;;0.75;;
36923;SDS011;22841;50.252;18.688;2023-08-06T08:13:30;0.95;;;0.60;;
36923;SDS011;22841;50.252;18.688;2023-08-06T08:15:57;2.33;;;0.70;;
36923;SDS011;22841;50.252;18.688;2023-08-06T08:18:24;17.48;;;0.93;;
36923;SDS011;22841;50.252;18.688;2023-08-06T08:20:51;5.10;;;0.75;;
36923;SDS011;22841;50.252;18.688;2023-08-06T08:23:17;4.85;;;1.27;;
36923;SDS011;22841;50.252;18.688;2023-08-06T08:25:43;2.03;;;0.60;;
36923;SDS011;22841;50.252;18.688;2023-08-06T08:28:09;1.02;;;0.40;;
36923;SDS011;22841;50.252;18.688;2023-08-06T08:30:35;1.25;;;0.50;;
36923;SDS011;22841;50.252;18.688;2023-08-06T08:33:02;2.72;;;0.38;;
36923;SDS011;22841;50.252;18.688;2023-08-06T08:35:28;2.22;;;0.73;;
36923;SDS011;22841;50.252;18.688;2023-08-06T08:37:54;3.95;;;0.60;;
36923;SDS011;22841;50.252;18.688;2023-08-06T08:40:20;0.57;;;0.57;;
36923;SDS011;22841;50.252;18.688;2023-08-06T08:42:48;3.60;;;0.63;;
36923;SDS011;22841;50.252;18.688;2023-08-06T08:45:15;2.13;;;0.55;;
36923;SDS011;22841;50.252;18.688;2023-08-06T08:47:43;1.70;;;0.80;;
36923;SDS011;22841;50.252;18.688;2023-08-06T08:50:10;0.80;;;0.50;;
36923;SDS011;22841;50.252;18.688;2023-08-06T08:52:37;5.55;;;0.60;;
36923;SDS011;22841;50.252;18.688;2023-08-06T08:55:06;1.40;;;0.40;;
36923;SDS011;22841;50.252;18.688;2023-08-06T08:57:33;3.42;;;0.40;;
36923;SDS011;22841;50.252;18.688;2023-08-06T08:59:59;1.13;;;0.50;;
36923;SDS011;22841;50.252;18.688;2023-08-06T09:21:47;1.55;;;0.30;;
36923;SDS011;22841;50.252;18.688;2023-08-06T09:24:16;0.45;;;0.30;;
36923;SDS011;22841;50.252;18.688;2023-08-06T09:26:45;3.88;;;0.55;;
36923;SDS011;22841;50.252;18.688;2023-08-06T09:29:11;0.63;;;0.63;;
36923;SDS011;22841;50.252;18.688;2023-08-06T09:31:41;3.60;;;0.52;;
36923;SDS011;22841;50.252;18.688;2023-08-06T09:34:21;0.35;;;0.35;;
36923;SDS011;22841;50.252;18.688;2023-08-06T09:36:53;1.88;;;0.50;;
36923;SDS011;22841;50.252;18.688;2023-08-06T09:39:26;3.42;;;0.80;;
36923;SDS011;22841;50.252;18.688;2023-08-06T09:41:57;3.72;;;1.50;;
36923;SDS011;22841;50.252;18.688;2023-08-06T09:44:24;1.05;;;1.00;;
36923;SDS011;22841;50.252;18.688;2023-08-06T09:47:16;5.43;;;4.93;;
36923;SDS011;22841;50.252;18.688;2023-08-06T09:50:20;2.67;;;0.60;;
36923;SDS011;22841;50.252;18.688;2023-08-06T09:53:11;2.10;;;0.40;;
36923;SDS011;22841;50.252;18.688;2023-08-06T09:55:38;0.40;;;0.40;;
36923;SDS011;22841;50.252;18.688;2023-08-06T09:58:05;1.25;;;0.63;;
36923;SDS011;22841;50.252;18.688;2023-08-06T10:00:32;0.80;;;0.80;;
36923;SDS011;22841;50.252;18.688;2023-08-06T10:03:00;3.40;;;0.77;;
36923;SDS011;22841;50.252;18.688;2023-08-06T10:05:26;1.10;;;0.80;;
36923;SDS011;22841;50.252;18.688;2023-08-06T10:07:53;1.30;;;0.95;;
36923;SDS011;22841;50.252;18.688;2023-08-06T10:10:21;1.73;;;1.45;;
36923;SDS011;22841;50.252;18.688;2023-08-06T10:12:49;8.55;;;2.97;;
36923;SDS011;22841;50.252;18.688;2023-08-06T10:15:20;1.30;;;1.20;;
36923;SDS011;22841;50.252;18.688;2023-08-06T10:17:50;4.13;;;3.40;;
36923;SDS011;22841;50.252;18.688;2023-08-06T10:20:19;4.57;;;2.38;;
36923;SDS011;22841;50.252;18.688;2023-08-06T10:23:03;3.35;;;0.90;;
36923;SDS011;22841;50.252;18.688;2023-08-06T10:25:32;2.50;;;1.00;;
36923;SDS011;22841;50.252;18.688;2023-08-06T10:27:59;0.82;;;0.60;;
36923;SDS011;22841;50.252;18.688;2023-08-06T10:30:32;1.65;;;0.55;;
36923;SDS011;22841;50.252;18.688;2023-08-06T10:33:00;0.50;;;0.47;;
36923;SDS011;22841;50.252;18.688;2023-08-06T10:35:27;6.43;;;0.73;;
36923;SDS011;22841;50.252;18.688;2023-08-06T10:40:29;14.95;;;1.27;;
36923;SDS011;22841;50.252;18.688;2023-08-06T10:43:00;1.13;;;0.70;;
36923;SDS011;22841;50.252;18.688;2023-08-06T10:45:27;3.58;;;0.80;;
36923;SDS011;22841;50.252;18.688;2023-08-06T10:47:56;1.23;;;0.73;;
36923;SDS011;22841;50.252;18.688;2023-08-06T10:50:24;0.70;;;0.70;;
36923;SDS011;22841;50.252;18.688;2023-08-06T10:52:50;1.85;;;0.90;;
36923;SDS011;22841;50.252;18.688;2023-08-06T10:57:50;5.90;;;0.95;;
36923;SDS011;22841;50.252;18.688;2023-08-06T11:00:17;3.55;;;0.93;;
36923;SDS011;22841;50.252;18.688;2023-08-06T11:02:43;4.65;;;1.00;;
36923;SDS011;22841;50.252;18.688;2023-08-06T11:05:09;4.30;;;1.58;;
36923;SDS011;22841;50.252;18.688;2023-08-06T11:08:01;8.50;;;2.28;;
36923;SDS011;22841;50.252;18.688;2023-08-06T11:10:27;5.47;;;2.10;;
36923;SDS011;22841;50.252;18.688;2023-08-06T11:12:54;4.50;;;2.30;;
36923;SDS011;22841;50.252;18.688;2023-08-06T11:15:20;6.00;;;1.75;;
36923;SDS011;22841;50.252;18.688;2023-08-06T11:17:47;5.32;;;2.20;;
36923;SDS011;22841;50.252;18.688;2023-08-06T11:20:13;11.45;;;1.92;;
36923;SDS011;22841;50.252;18.688;2023-08-06T11:22:39;6.97;;;2.22;;
36923;SDS011;22841;50.252;18.688;2023-08-06T11:25:06;7.78;;;1.83;;
36923;SDS011;22841;50.252;18.688;2023-08-06T11:27:32;8.32;;;3.08;;
36923;SDS011;22841;50.252;18.688;2023-08-06T11:29:59;12.38;;;3.33;;
36923;SDS011;22841;50.252;18.688;2023-08-06T11:32:25;9.85;;;3.47;;
36923;SDS011;22841;50.252;18.688;2023-08-06T11:34:53;5.75;;;2.50;;
36923;SDS011;22841;50.252;18.688;2023-08-06T11:37:22;3.58;;;2.10;;
36923;SDS011;22841;50.252;18.688;2023-08-06T11:39:50;6.18;;;2.03;;
36923;SDS011;22841;50.252;18.688;2023-08-06T11:42:16;16.90;;;2.83;;
36923;SDS011;22841;50.252;18.688;2023-08-06T11:44:43;4.40;;;2.38;;
36923;SDS011;22841;50.252;18.688;2023-08-06T11:47:16;4.03;;;2.20;;
36923;SDS011;22841;50.252;18.688;2023-08-06T11:49:47;10.00;;;2.35;;
36923;SDS011;22841;50.252;18.688;2023-08-06T11:55:09;9.90;;;1.98;;
36923;SDS011;22841;50.252;18.688;2023-08-06T11:57:38;2.25;;;1.92;;
36923;SDS011;22841;50.252;18.688;2023-08-06T12:00:06;6.53;;;2.05;;
36923;SDS011;22841;50.252;18.688;2023-08-06T12:02:33;3.42;;;1.90;;
36923;SDS011;22841;50.252;18.688;2023-08-06T12:05:15;7.50;;;1.60;;
36923;SDS011;22841;50.252;18.688;2023-08-06T12:10:18;1.35;;;1.10;;
36923;SDS011;22841;50.252;18.688;2023-08-06T12:12:48;1.52;;;1.23;;
36923;SDS011;22841;50.252;18.688;2023-08-06T12:15:15;1.13;;;1.02;;
36923;SDS011;22841;50.252;18.688;2023-08-06T12:17:42;0.93;;;0.90;;
36923;SDS011;22841;50.252;18.688;2023-08-06T12:20:09;5.43;;;1.42;;
36923;SDS011;22841;50.252;18.688;2023-08-06T12:22:35;1.48;;;1.38;;
36923;SDS011;22841;50.252;18.688;2023-08-06T12:25:04;1.55;;;1.45;;
36923;SDS011;22841;50.252;18.688;2023-08-06T12:27:36;4.43;;;1.98;;
36923;SDS011;22841;50.252;18.688;2023-08-06T12:30:07;3.47;;;2.25;;
36923;SDS011;22841;50.252;18.688;2023-08-06T12:32:34;2.13;;;1.42;;
36923;SDS011;22841;50.252;18.688;2023-08-06T12:35:01;1.63;;;1.50;;
36923;SDS011;22841;50.252;18.688;2023-08-06T12:37:28;1.98;;;1.63;;
36923;SDS011;22841;50.252;18.688;2023-08-06T12:39:55;2.45;;;1.85;;
36923;SDS011;22841;50.252;18.688;2023-08-06T12:42:21;2.35;;;1.98;;
36923;SDS011;22841;50.252;18.688;2023-08-06T12:44:50;3.97;;;2.00;;
36923;SDS011;22841;50.252;18.688;2023-08-06T12:47:17;2.35;;;1.95;;
36923;SDS011;22841;50.252;18.688;2023-08-06T12:49:43;1.13;;;1.02;;
36923;SDS011;22841;50.252;18.688;2023-08-06T12:52:09;2.75;;;1.00;;
36923;SDS011;22841;50.252;18.688;2023-08-06T12:54:38;1.00;;;0.90;;
36923;SDS011;22841;50.252;18.688;2023-08-06T12:57:04;1.38;;;1.00;;
36923;SDS011;22841;50.252;18.688;2023-08-06T12:59:31;3.40;;;1.20;;
36923;SDS011;22841;50.252;18.688;2023-08-06T13:02:02;2.60;;;1.00;;
36923;SDS011;22841;50.252;18.688;2023-08-06T13:04:28;1.00;;;0.88;;
36923;SDS011;22841;50.252;18.688;2023-08-06T13:06:55;1.02;;;0.60;;
36923;SDS011;22841;50.252;18.688;2023-08-06T13:09:21;0.70;;;0.70;;
36923;SDS011;22841;50.252;18.688;2023-08-06T13:11:47;2.22;;;0.90;;
36923;SDS011;22841;50.252;18.688;2023-08-06T13:14:15;1.23;;;1.00;;
36923;SDS011;22841;50.252;18.688;2023-08-06T13:16:42;1.23;;;0.90;;
36923;SDS011;22841;50.252;18.688;2023-08-06T13:19:09;1.08;;;0.93;;
36923;SDS011;22841;50.252;18.688;2023-08-06T13:21:36;8.05;;;0.95;;
36923;SDS011;22841;50.252;18.688;2023-08-06T13:24:32;1.58;;;1.10;;
36923;SDS011;22841;50.252;18.688;2023-08-06T13:26:58;1.63;;;1.00;;
36923;SDS011;22841;50.252;18.688;2023-08-06T13:29:25;1.83;;;0.90;;
36923;SDS011;22841;50.252;18.688;2023-08-06T13:31:52;0.88;;;0.88;;
36923;SDS011;22841;50.252;18.688;2023-08-06T13:34:18;1.33;;;1.23;;
36923;SDS011;22841;50.252;18.688;2023-08-06T13:36:44;0.90;;;0.90;;
36923;SDS011;22841;50.252;18.688;2023-08-06T13:39:10;2.63;;;1.20;;
36923;SDS011;22841;50.252;18.688;2023-08-06T13:41:37;1.90;;;0.80;;
36923;SDS011;22841;50.252;18.688;2023-08-06T13:44:04;1.27;;;1.02;;
36923;SDS011;22841;50.252;18.688;2023-08-06T13:46:30;2.35;;;1.10;;
36923;SDS011;22841;50.252;18.688;2023-08-06T13:48:56;2.67;;;1.00;;
36923;SDS011;22841;50.252;18.688;2023-08-06T13:51:23;0.82;;;0.82;;
36923;SDS011;22841;50.252;18.688;2023-08-06T13:53:49;0.98;;;0.85;;
36923;SDS011;22841;50.252;18.688;2023-08-06T13:56:15;1.58;;;1.10;;
36923;SDS011;22841;50.252;18.688;2023-08-06T13:58:43;6.90;;;0.98;;
36923;SDS011;22841;50.252;18.688;2023-08-06T14:01:09;5.50;;;1.13;;
36923;SDS011;22841;50.252;18.688;2023-08-06T14:03:36;1.30;;;1.20;;
36923;SDS011;22841;50.252;18.688;2023-08-06T14:06:02;1.20;;;1.10;;
36923;SDS011;22841;50.252;18.688;2023-08-06T14:11:20;2.03;;;1.60;;
36923;SDS011;22841;50.252;18.688;2023-08-06T14:13:46;5.82;;;4.30;;
36923;SDS011;22841;50.252;18.688;2023-08-06T14:16:12;1.55;;;1.45;;
36923;SDS011;22841;50.252;18.688;2023-08-06T14:18:39;4.30;;;2.00;;
36923;SDS011;22841;50.252;18.688;2023-08-06T14:21:06;2.58;;;1.55;;
36923;SDS011;22841;50.252;18.688;2023-08-06T14:23:33;2.35;;;1.52;;
36923;SDS011;22841;50.252;18.688;2023-08-06T14:26:00;2.78;;;1.45;;
36923;SDS011;22841;50.252;18.688;2023-08-06T14:28:26;2.08;;;1.88;;
36923;SDS011;22841;50.252;18.688;2023-08-06T14:30:52;4.55;;;2.47;;
36923;SDS011;22841;50.252;18.688;2023-08-06T14:33:18;3.75;;;2.60;;
36923;SDS011;22841;50.252;18.688;2023-08-06T14:35:44;4.60;;;2.20;;
36923;SDS011;22841;50.252;18.688;2023-08-06T14:38:10;5.22;;;1.58;;
36923;SDS011;22841;50.252;18.688;2023-08-06T14:40:36;1.10;;;1.10;;
36923;SDS011;22841;50.252;18.688;2023-08-06T14:43:06;1.40;;;1.30;;
36923;SDS011;22841;50.252;18.688;2023-08-06T14:45:32;1.60;;;1.50;;
36923;SDS011;22841;50.252;18.688;2023-08-06T14:47:58;1.45;;;1.40;;
36923;SDS011;22841;50.252;18.688;2023-08-06T14:50:24;1.85;;;1.55;;
36923;SDS011;22841;50.252;18.688;2023-08-06T14:52:51;1.27;;;1.17;;
36923;SDS011;22841;50.252;18.688;2023-08-06T14:55:17;1.80;;;1.10;;
36923;SDS011;22841;50.252;18.688;2023-08-06T14:57:49;1.30;;;1.20;;
36923;SDS011;22841;50.252;18.688;2023-08-06T15:00:16;1.80;;;1.52;;
36923;SDS011;22841;50.252;18.688;2023-08-06T15:02:42;1.70;;;1.20;;
36923;SDS011;22841;50.252;18.688;2023-08-06T15:05:09;1.35;;;1.25;;
36923;SDS011;22841;50.252;18.688;2023-08-06T15:07:35;1.52;;;1.20;;
36923;SDS011;22841;50.252;18.688;2023-08-06T15:10:03;4.97;;;1.30;;
36923;SDS011;22841;50.252;18.688;2023-08-06T15:12:31;3.72;;;1.33;;
36923;SDS011;22841;50.252;18.688;2023-08-06T15:14:58;6.47;;;1.27;;
36923;SDS011;22841;50.252;18.688;2023-08-06T15:17:26;2.03;;;1.33;;
36923;SDS011;22841;50.252;18.688;2023-08-06T15:19:52;1.23;;;1.13;;
36923;SDS011;22841;50.252;18.688;2023-08-06T15:22:18;1.98;;;1.15;;
36923;SDS011;22841;50.252;18.688;2023-08-06T15:24:45;0.95;;;0.95;;
36923;SDS011;22841;50.252;18.688;2023-08-06T15:27:11;4.32;;;1.67;;
36923;SDS011;22841;50.252;18.688;2023-08-06T15:29:37;1.77;;;1.20;;
36923;SDS011;22841;50.252;18.688;2023-08-06T15:32:03;1.17;;;1.13;;
36923;SDS011;22841;50.252;18.688;2023-08-06T15:34:30;1.30;;;1.20;;
36923;SDS011;22841;50.252;18.688;2023-08-06T15:36:56;1.80;;;1.30;;
36923;SDS011;22841;50.252;18.688;2023-08-06T15:39:22;1.38;;;1.27;;
36923;SDS011;22841;50.252;18.688;2023-08-06T15:41:48;1.40;;;1.30;;
36923;SDS011;22841;50.252;18.688;2023-08-06T15:47:06;3.78;;;1.50;;
36923;SDS011;22841;50.252;18.688;2023-08-06T15:56:05;1.10;;;1.00;;
36923;SDS011;22841;50.252;18.688;2023-08-06T15:58:32;3.08;;;1.27;;
36923;SDS011;22841;50.252;18.688;2023-08-06T16:00:58;1.30;;;1.00;;
36923;SDS011;22841;50.252;18.688;2023-08-06T16:03:24;1.00;;;1.00;;
36923;SDS011;22841;50.252;18.688;2023-08-06T16:05:50;0.80;;;0.80;;
36923;SDS011;22841;50.252;18.688;2023-08-06T16:08:16;1.33;;;1.08;;
36923;SDS011;22841;50.252;18.688;2023-08-06T16:10:42;0.80;;;0.80;;
36923;SDS011;22841;50.252;18.688;2023-08-06T16:13:10;1.33;;;0.95;;
36923;SDS011;22841;50.252;18.688;2023-08-06T16:15:37;1.15;;;1.02;;
36923;SDS011;22841;50.252;18.688;2023-08-06T16:18:03;2.13;;;1.00;;
36923;SDS011;22841;50.252;18.688;2023-08-06T16:20:29;1.45;;;1.10;;
36923;SDS011;22841;50.252;18.688;2023-08-06T16:22:56;1.40;;;1.20;;
36923;SDS011;22841;50.252;18.688;2023-08-06T16:25:22;3.83;;;1.90;;
36923;SDS011;22841;50.252;18.688;2023-08-06T16:27:48;3.47;;;1.65;;
36923;SDS011;22841;50.252;18.688;2023-08-06T16:30:14;1.25;;;1.15;;
36923;SDS011;22841;50.252;18.688;2023-08-06T16:32:42;1.30;;;1.20;;
36923;SDS011;22841;50.252;18.688;2023-08-06T16:35:09;3.60;;;1.30;;